Time;durP1;ratioP1;P1;durP2;ratioP2;P2;SDS_P1;SDS_P2;PMS_P1;PMS_P2;Temp;Humidity;BMP_temperature;BMP_pressure;BME280_temperature;BME280_humidity;BME280_pressure;Samples;Min_cycle;Max_cycle;Signal;HPM_P1;HPM_P2
2023/04/27 00:00:57;;;;;;;5.10;3.77;;;7.70;92.00;;;;;;5022515;28;20432;-61
2023/04/27 00:03:23;;;;;;;8.20;3.70;;;7.70;92.20;;;;;;5045318;28;20183;-61
2023/04/27 00:05:48;;;;;;;5.97;3.83;;;7.60;93.20;;;;;;5041347;28;20214;-60
2023/04/27 00:08:14;;;;;;;4.80;3.47;;;7.60;93.40;;;;;;5045155;28;20187;-61
2023/04/27 00:10:39;;;;;;;5.40;3.90;;;7.60;93.90;;;;;;5044396;28;20714;-60
2023/04/27 00:13:05;;;;;;;4.03;3.53;;;7.60;94.20;;;;;;5039583;28;20199;-60
2023/04/27 00:15:31;;;;;;;8.60;4.30;;;7.60;94.20;;;;;;5042955;28;20294;-60
2023/04/27 00:17:56;;;;;;;5.10;3.80;;;7.60;94.70;;;;;;5039295;28;20199;-60
2023/04/27 00:20:22;;;;;;;4.90;4.00;;;7.60;97.70;;;;;;5042272;28;20178;-60
2023/04/27 00:22:48;;;;;;;4.50;3.47;;;7.60;99.00;;;;;;5043990;28;20190;-60
2023/04/27 00:25:13;;;;;;;5.77;3.53;;;7.60;99.90;;;;;;5045641;28;20168;-60
2023/04/27 00:27:39;;;;;;;7.13;3.77;;;7.50;99.90;;;;;;5037721;28;20585;-61
2023/04/27 00:30:05;;;;;;;6.77;4.30;;;7.60;99.90;;;;;;5038724;28;20187;-60
2023/04/27 00:32:31;;;;;;;8.73;3.87;;;7.60;99.90;;;;;;5045512;28;20225;-60
2023/04/27 00:34:56;;;;;;;7.17;4.27;;;7.50;99.90;;;;;;5039147;28;20434;-60
2023/04/27 00:37:22;;;;;;;7.27;4.13;;;7.50;99.90;;;;;;5038246;28;20201;-59
2023/04/27 00:39:48;;;;;;;9.73;4.00;;;7.50;99.90;;;;;;5044467;28;20229;-60
2023/04/27 00:42:16;;;;;;;5.10;4.13;;;7.40;99.90;;;;;;5038615;28;20175;-60
2023/04/27 00:44:41;;;;;;;6.00;3.97;;;7.40;99.90;;;;;;5043251;28;20198;-60
2023/04/27 00:47:08;;;;;;;7.90;4.50;;;7.40;99.90;;;;;;5046835;28;20445;-60
2023/04/27 00:49:34;;;;;;;4.47;3.80;;;7.30;99.90;;;;;;5040376;28;20593;-60
2023/04/27 00:52:00;;;;;;;9.80;3.90;;;7.30;99.90;;;;;;5041622;28;20430;-61
2023/04/27 00:54:25;;;;;;;12.23;4.70;;;7.30;99.90;;;;;;5041324;28;20183;-60
2023/04/27 00:56:52;;;;;;;4.40;4.00;;;7.30;99.90;;;;;;5041357;28;20226;-60
2023/04/27 00:59:18;;;;;;;5.90;3.80;;;7.30;99.90;;;;;;5042122;28;20179;-60
2023/04/27 01:01:45;;;;;;;6.33;4.13;;;7.30;99.90;;;;;;5040004;28;20422;-60
2023/04/27 01:04:11;;;;;;;5.10;3.60;;;7.30;99.90;;;;;;5044157;28;20453;-60
2023/04/27 01:06:38;;;;;;;5.93;4.00;;;7.30;99.90;;;;;;5042995;28;20879;-60
2023/04/27 01:09:04;;;;;;;8.03;4.23;;;7.30;99.90;;;;;;5038047;28;20171;-61
2023/04/27 01:11:31;;;;;;;5.00;3.80;;;7.30;99.90;;;;;;5042194;28;20491;-60
2023/04/27 01:13:56;;;;;;;6.80;3.77;;;7.40;99.90;;;;;;5042324;28;20997;-60
2023/04/27 01:16:22;;;;;;;5.97;3.90;;;7.40;99.90;;;;;;5040229;28;20544;-60
2023/04/27 01:18:48;;;;;;;8.87;4.40;;;7.40;99.90;;;;;;5041560;28;20221;-60
2023/04/27 01:21:13;;;;;;;5.40;4.03;;;7.40;99.90;;;;;;5036376;28;20572;-60
2023/04/27 01:23:39;;;;;;;7.03;3.90;;;7.40;99.90;;;;;;5040492;28;20186;-60
2023/04/27 01:26:04;;;;;;;5.43;4.30;;;7.40;99.90;;;;;;5020358;28;20276;-60
2023/04/27 01:28:30;;;;;;;7.23;4.90;;;7.40;99.90;;;;;;5040973;28;20260;-60
2023/04/27 01:30:56;;;;;;;12.03;4.77;;;7.40;99.90;;;;;;5036556;28;20175;-60
2023/04/27 01:33:21;;;;;;;8.07;4.87;;;7.40;99.90;;;;;;5023438;28;20434;-60
2023/04/27 01:35:47;;;;;;;5.70;4.10;;;7.50;99.90;;;;;;5037421;28;20206;-60
2023/04/27 01:38:12;;;;;;;5.93;4.33;;;7.50;99.90;;;;;;5045396;28;20276;-60
2023/04/27 01:40:38;;;;;;;5.83;4.43;;;7.50;99.90;;;;;;5038204;28;20882;-59
2023/04/27 01:43:04;;;;;;;5.70;4.40;;;7.50;99.90;;;;;;5040236;28;20258;-60
2023/04/27 01:45:29;;;;;;;7.23;4.33;;;7.50;99.90;;;;;;5039657;28;20203;-60
2023/04/27 01:47:55;;;;;;;5.27;4.50;;;7.50;99.90;;;;;;5039026;28;20179;-60
2023/04/27 01:50:21;;;;;;;8.40;5.60;;;7.50;99.90;;;;;;5037570;28;20275;-60
2023/04/27 01:52:46;;;;;;;6.37;4.63;;;7.40;99.90;;;;;;5038638;28;20234;-60
2023/04/27 01:55:12;;;;;;;7.77;4.67;;;7.40;99.90;;;;;;5040656;28;20187;-60
2023/04/27 01:57:38;;;;;;;4.87;4.20;;;7.40;99.90;;;;;;5045794;28;20214;-60
2023/04/27 02:00:04;;;;;;;6.30;3.90;;;7.40;99.90;;;;;;5021950;28;20182;-60
2023/04/27 02:02:30;;;;;;;8.10;4.20;;;7.40;99.90;;;;;;5040112;28;20171;-60
2023/04/27 02:04:55;;;;;;;5.00;4.33;;;7.40;99.90;;;;;;5043840;28;20493;-59
2023/04/27 02:07:21;;;;;;;8.77;4.67;;;7.40;99.90;;;;;;5042031;28;20219;-60
2023/04/27 02:09:47;;;;;;;11.90;4.77;;;7.40;99.90;;;;;;5022365;28;20203;-60
2023/04/27 02:12:12;;;;;;;6.30;4.57;;;7.40;99.90;;;;;;5038733;28;20175;-61
2023/04/27 02:14:38;;;;;;;6.60;4.17;;;7.30;99.90;;;;;;5037256;28;20255;-59
2023/04/27 02:17:04;;;;;;;6.07;4.40;;;7.30;99.90;;;;;;5026051;28;20207;-60
2023/04/27 02:19:29;;;;;;;6.60;4.30;;;7.30;99.90;;;;;;5040143;28;20171;-60
2023/04/27 02:21:55;;;;;;;7.17;4.73;;;7.30;99.90;;;;;;5046730;28;20178;-60
2023/04/27 02:24:20;;;;;;;6.77;4.93;;;7.30;99.90;;;;;;5038600;28;20168;-60
2023/04/27 02:26:46;;;;;;;7.00;4.30;;;7.30;99.90;;;;;;5040953;28;20977;-60
2023/04/27 02:29:11;;;;;;;9.40;4.30;;;7.30;99.90;;;;;;5042208;28;20175;-60
2023/04/27 02:31:37;;;;;;;6.60;4.63;;;7.30;99.90;;;;;;5038322;28;20650;-60
2023/04/27 02:34:02;;;;;;;9.80;5.03;;;7.30;99.90;;;;;;5037761;28;20213;-60
2023/04/27 02:36:28;;;;;;;12.17;4.50;;;7.30;99.90;;;;;;5037317;28;20198;-60
2023/04/27 02:38:55;;;;;;;5.57;3.93;;;7.30;99.90;;;;;;5035295;28;20688;-60
2023/04/27 02:41:20;;;;;;;6.53;4.90;;;7.30;99.90;;;;;;5039508;28;20195;-61
2023/04/27 02:43:46;;;;;;;5.43;4.30;;;7.30;99.90;;;;;;5023363;28;20482;-60
2023/04/27 02:46:12;;;;;;;11.60;4.50;;;7.30;99.90;;;;;;5042978;28;20278;-60
2023/04/27 02:48:38;;;;;;;5.97;4.37;;;7.30;99.90;;;;;;5042148;28;20179;-62
2023/04/27 02:51:04;;;;;;;6.83;3.60;;;7.30;99.90;;;;;;5033847;28;20439;-61
2023/04/27 02:53:29;;;;;;;9.63;4.30;;;7.30;99.90;;;;;;5042338;28;20163;-59
2023/04/27 02:55:57;;;;;;;6.60;4.03;;;7.30;99.90;;;;;;5022181;28;20230;-59
2023/04/27 02:58:22;;;;;;;6.43;4.10;;;7.30;99.90;;;;;;5035337;28;20203;-60
2023/04/27 03:00:56;;;;;;;5.20;3.60;;;7.30;99.90;;;;;;5035804;28;20425;-59
2023/04/27 03:03:22;;;;;;;6.90;4.23;;;7.30;99.90;;;;;;5039349;28;20232;-59
2023/04/27 03:05:48;;;;;;;5.77;4.13;;;7.30;99.90;;;;;;5037267;28;20850;-59
2023/04/27 03:08:14;;;;;;;8.43;5.27;;;7.30;99.90;;;;;;5042983;28;20418;-59
2023/04/27 03:10:39;;;;;;;5.50;4.00;;;7.30;99.90;;;;;;5040158;28;20180;-59
2023/04/27 03:13:05;;;;;;;7.20;4.80;;;7.30;99.90;;;;;;5046751;28;20816;-59
2023/04/27 03:15:31;;;;;;;13.90;5.47;;;7.30;99.90;;;;;;5051161;28;20195;-60
2023/04/27 03:17:57;;;;;;;7.23;4.20;;;7.20;99.90;;;;;;5038157;28;20980;-60
2023/04/27 03:20:22;;;;;;;6.33;4.30;;;7.20;99.90;;;;;;5043314;28;20179;-55
2023/04/27 03:22:48;;;;;;;6.07;4.30;;;7.20;99.90;;;;;;5043781;28;20774;-59
2023/04/27 03:25:13;;;;;;;8.93;4.50;;;7.20;99.90;;;;;;5049230;28;20160;-60
2023/04/27 03:27:39;;;;;;;7.20;4.20;;;7.20;99.90;;;;;;5043415;28;20206;-62
2023/04/27 03:30:06;;;;;;;6.90;4.73;;;7.20;99.90;;;;;;5043752;28;20225;-59
2023/04/27 03:32:31;;;;;;;7.73;4.40;;;7.20;99.90;;;;;;5029260;28;20183;-59
2023/04/27 03:34:57;;;;;;;14.60;4.67;;;7.20;99.90;;;;;;5044789;28;21144;-59
2023/04/27 03:37:23;;;;;;;14.70;4.57;;;7.20;99.90;;;;;;5044152;28;20908;-59
2023/04/27 03:39:48;;;;;;;4.83;4.10;;;7.20;99.90;;;;;;5049290;28;20175;-59
2023/04/27 03:42:14;;;;;;;9.70;5.07;;;7.20;99.90;;;;;;5049132;28;20168;-59
2023/04/27 03:44:39;;;;;;;9.40;4.97;;;7.20;99.90;;;;;;5046047;28;20191;-59
2023/04/27 03:47:08;;;;;;;6.20;4.87;;;7.20;99.90;;;;;;5044041;28;20202;-60
2023/04/27 03:49:37;;;;;;;7.07;4.20;;;7.20;99.90;;;;;;5043785;28;20262;-58
2023/04/27 03:52:02;;;;;;;10.53;4.70;;;7.20;99.90;;;;;;5029103;28;20453;-59
2023/04/27 03:54:30;;;;;;;5.87;4.57;;;7.20;99.90;;;;;;5041493;28;20437;-59
2023/04/27 03:56:56;;;;;;;7.17;4.70;;;7.20;99.90;;;;;;5048667;28;20195;-59
2023/04/27 03:59:21;;;;;;;6.97;4.67;;;7.10;99.90;;;;;;5047358;28;20421;-59
2023/04/27 04:01:47;;;;;;;8.80;4.90;;;7.20;99.90;;;;;;5038125;28;20298;-59
2023/04/27 04:04:12;;;;;;;9.37;4.83;;;7.10;99.90;;;;;;5042064;28;20175;-55
2023/04/27 04:06:38;;;;;;;8.03;4.10;;;7.10;99.90;;;;;;5042646;28;20203;-60
2023/04/27 04:09:03;;;;;;;5.77;4.90;;;7.20;99.90;;;;;;5024134;28;20200;-60
2023/04/27 04:11:29;;;;;;;8.93;4.90;;;7.20;99.90;;;;;;5039185;28;20193;-60
2023/04/27 04:13:55;;;;;;;7.43;4.83;;;7.20;99.90;;;;;;5039518;28;20176;-56
2023/04/27 04:16:20;;;;;;;7.63;5.20;;;7.20;99.90;;;;;;5036840;28;20248;-59
2023/04/27 04:18:46;;;;;;;12.13;5.37;;;7.20;99.90;;;;;;5044116;28;20210;-60
2023/04/27 04:21:12;;;;;;;8.57;5.40;;;7.20;99.90;;;;;;5041585;28;20702;-56
2023/04/27 04:23:39;;;;;;;6.07;4.70;;;7.20;99.90;;;;;;5031354;28;20221;-56
2023/04/27 04:26:06;;;;;;;8.10;5.20;;;7.20;99.90;;;;;;5031402;28;20203;-59
2023/04/27 04:28:31;;;;;;;8.23;4.87;;;7.20;99.90;;;;;;5038991;28;20530;-59
2023/04/27 04:30:58;;;;;;;6.47;4.70;;;7.20;99.90;;;;;;5035515;28;21091;-60
2023/04/27 04:33:25;;;;;;;6.73;4.57;;;7.20;99.90;;;;;;5035616;28;20291;-60
2023/04/27 04:35:50;;;;;;;6.83;5.13;;;7.20;99.90;;;;;;5038511;28;20511;-60
2023/04/27 04:38:16;;;;;;;7.57;4.97;;;7.20;99.90;;;;;;5019777;28;22987;-60
2023/04/27 04:40:42;;;;;;;10.83;4.70;;;7.20;99.90;;;;;;5035448;28;20820;-60
2023/04/27 04:43:08;;;;;;;6.20;4.53;;;7.20;99.90;;;;;;5033382;28;20425;-60
2023/04/27 04:45:33;;;;;;;6.87;4.63;;;7.20;99.90;;;;;;5036110;28;20210;-60
2023/04/27 04:48:03;;;;;;;7.83;4.63;;;7.20;99.90;;;;;;5029200;28;20750;-59
2023/04/27 04:50:28;;;;;;;7.33;4.50;;;7.20;99.90;;;;;;5031705;28;20707;-61
2023/04/27 04:52:54;;;;;;;6.93;4.90;;;7.20;99.90;;;;;;5036107;28;20430;-59
2023/04/27 04:55:20;;;;;;;9.50;5.87;;;7.20;99.90;;;;;;5036566;28;20183;-60
2023/04/27 04:57:46;;;;;;;9.23;4.97;;;7.30;99.90;;;;;;5037370;28;20860;-60
2023/04/27 05:00:12;;;;;;;6.43;4.97;;;7.20;99.90;;;;;;5042480;28;20171;-59
2023/04/27 05:02:39;;;;;;;7.37;5.30;;;7.30;99.90;;;;;;5042745;28;20191;-59
2023/04/27 05:05:05;;;;;;;11.27;5.27;;;7.30;99.90;;;;;;5026160;28;20948;-60
2023/04/27 05:07:30;;;;;;;7.20;4.90;;;7.30;99.90;;;;;;5044793;28;20464;-59
2023/04/27 05:09:56;;;;;;;9.23;5.17;;;7.30;99.90;;;;;;5036339;28;20464;-59
2023/04/27 05:12:22;;;;;;;6.30;5.10;;;7.30;99.90;;;;;;5038825;28;20698;-60
2023/04/27 05:14:47;;;;;;;9.87;5.07;;;7.30;99.90;;;;;;5036270;28;20532;-60
2023/04/27 05:17:13;;;;;;;9.30;5.50;;;7.30;99.90;;;;;;5020880;28;21207;-59
2023/04/27 05:19:39;;;;;;;5.90;4.47;;;7.30;99.90;;;;;;5043771;28;20179;-59
2023/04/27 05:22:04;;;;;;;7.20;4.63;;;7.30;99.90;;;;;;5045526;28;20171;-61
2023/04/27 05:24:30;;;;;;;14.23;5.90;;;7.30;99.90;;;;;;5046078;28;20172;-60
2023/04/27 05:26:56;;;;;;;7.23;5.10;;;7.40;99.90;;;;;;5041483;28;20676;-60
2023/04/27 05:29:21;;;;;;;10.63;5.03;;;7.40;99.90;;;;;;5035627;28;20684;-60
2023/04/27 05:31:47;;;;;;;9.60;5.20;;;7.40;99.90;;;;;;5038662;28;20253;-59
2023/04/27 05:34:13;;;;;;;9.10;5.30;;;7.40;99.90;;;;;;5038263;28;20233;-61
2023/04/27 05:36:39;;;;;;;11.50;6.73;;;7.50;99.90;;;;;;5039724;28;20203;-60
2023/04/27 05:39:04;;;;;;;8.60;5.40;;;7.50;99.90;;;;;;5042431;28;20675;-61
2023/04/27 05:41:30;;;;;;;7.07;4.80;;;7.50;99.90;;;;;;5035227;28;20425;-61
2023/04/27 05:43:56;;;;;;;9.80;5.37;;;7.50;99.90;;;;;;5038012;28;20175;-59
2023/04/27 05:46:21;;;;;;;9.77;5.33;;;7.50;99.90;;;;;;5045492;28;20244;-59
2023/04/27 05:48:47;;;;;;;8.97;5.90;;;7.50;99.90;;;;;;5044795;28;20189;-60
2023/04/27 05:51:13;;;;;;;8.77;5.70;;;7.50;99.90;;;;;;5038629;28;20182;-60
2023/04/27 05:53:38;;;;;;;8.20;5.63;;;7.60;99.90;;;;;;5046718;28;20214;-59
2023/04/27 05:56:05;;;;;;;10.00;6.10;;;7.60;99.90;;;;;;5024970;28;20254;-60
2023/04/27 05:58:32;;;;;;;14.10;5.57;;;7.60;99.90;;;;;;5043106;28;20688;-60
2023/04/27 06:00:59;;;;;;;10.10;6.20;;;7.70;99.90;;;;;;5039436;28;20448;-60
2023/04/27 06:03:25;;;;;;;8.33;5.73;;;7.70;99.90;;;;;;5046636;28;20434;-60
2023/04/27 06:05:59;;;;;;;12.10;7.00;;;7.80;99.90;;;;;;5031241;28;20982;-60
2023/04/27 06:08:26;;;;;;;12.80;5.47;;;7.80;99.90;;;;;;5038581;28;20644;-59
2023/04/27 06:10:52;;;;;;;13.00;5.70;;;7.90;99.90;;;;;;5044815;28;20492;-60
2023/04/27 06:13:19;;;;;;;9.07;6.03;;;7.90;99.20;;;;;;5039768;28;20435;-60
2023/04/27 06:15:45;;;;;;;8.13;5.13;;;7.90;98.70;;;;;;5047534;28;20481;-60
2023/04/27 06:18:11;;;;;;;9.63;5.60;;;8.00;98.60;;;;;;5023215;28;20462;-60
2023/04/27 06:20:36;;;;;;;6.80;5.57;;;8.00;98.40;;;;;;5041980;28;20765;-59
2023/04/27 06:23:02;;;;;;;10.13;5.53;;;8.00;96.90;;;;;;5039820;28;20381;-60
2023/04/27 06:25:28;;;;;;;7.97;5.37;;;8.10;98.10;;;;;;5037077;28;20614;-59
2023/04/27 06:27:55;;;;;;;6.77;5.10;;;8.20;98.90;;;;;;5036192;28;20176;-60
2023/04/27 06:30:21;;;;;;;6.90;5.73;;;8.20;99.10;;;;;;5041622;28;20699;-60
2023/04/27 06:32:47;;;;;;;7.60;5.80;;;8.30;99.90;;;;;;5042364;28;20536;-60
2023/04/27 06:35:13;;;;;;;9.87;5.17;;;8.40;99.70;;;;;;5035193;28;20458;-60
2023/04/27 06:37:38;;;;;;;8.97;5.00;;;8.50;98.20;;;;;;5037858;28;20494;-60
2023/04/27 06:40:05;;;;;;;12.53;5.43;;;8.60;95.70;;;;;;5047343;28;20171;-60
2023/04/27 06:42:31;;;;;;;10.30;6.30;;;8.60;94.30;;;;;;5049465;28;20225;-60
2023/04/27 06:44:57;;;;;;;10.87;6.07;;;8.70;93.50;;;;;;5052766;28;20429;-59
2023/04/27 06:47:23;;;;;;;13.73;5.63;;;8.70;92.80;;;;;;5046887;28;20202;-59
2023/04/27 06:49:48;;;;;;;12.03;5.83;;;8.80;91.80;;;;;;5046242;28;20531;-60
2023/04/27 06:52:14;;;;;;;7.97;5.80;;;8.90;92.00;;;;;;5047153;28;20175;-60
2023/04/27 06:54:40;;;;;;;18.20;6.93;;;8.90;91.10;;;;;;5048562;28;20210;-60
2023/04/27 06:57:06;;;;;;;8.87;5.63;;;9.00;88.80;;;;;;5051110;28;20203;-61
2023/04/27 06:59:31;;;;;;;7.87;5.43;;;9.10;88.00;;;;;;5041921;28;20716;-60
2023/04/27 07:01:57;;;;;;;8.43;5.50;;;9.20;88.20;;;;;;5051705;28;20464;-60
2023/04/27 07:04:23;;;;;;;13.00;6.07;;;9.20;83.50;;;;;;5051085;28;20174;-59
2023/04/27 07:06:48;;;;;;;12.37;5.57;;;9.30;80.50;;;;;;5047373;28;20229;-60
2023/04/27 07:09:14;;;;;;;14.57;5.77;;;9.30;78.80;;;;;;5043072;28;20256;-60
2023/04/27 07:11:40;;;;;;;10.03;6.37;;;9.40;79.10;;;;;;5046336;28;20175;-61
2023/04/27 07:14:05;;;;;;;10.33;6.07;;;9.50;76.80;;;;;;5042448;28;20673;-60
2023/04/27 07:16:31;;;;;;;11.13;7.07;;;9.60;77.40;;;;;;5044238;28;20199;-60
2023/04/27 07:18:57;;;;;;;10.20;6.77;;;9.70;76.10;;;;;;5045944;28;20575;-60
2023/04/27 07:21:22;;;;;;;17.13;7.77;;;9.80;74.40;;;;;;5043930;28;20261;-61
2023/04/27 07:23:48;;;;;;;15.10;7.10;;;9.90;73.50;;;;;;5038336;28;20648;-60
2023/04/27 07:26:13;;;;;;;18.50;6.40;;;9.90;72.00;;;;;;5047062;28;20733;-59
2023/04/27 07:28:39;;;;;;;9.80;6.60;;;10.00;69.40;;;;;;5042228;28;20187;-59
2023/04/27 07:31:05;;;;;;;14.53;7.10;;;10.10;68.80;;;;;;5043698;28;20180;-60
2023/04/27 07:33:32;;;;;;;12.17;6.13;;;10.20;69.00;;;;;;5041312;28;20171;-60
2023/04/27 07:35:58;;;;;;;8.70;5.63;;;10.30;68.50;;;;;;5040222;28;20475;-60
2023/04/27 07:38:24;;;;;;;16.87;6.73;;;10.30;68.10;;;;;;5048695;28;20467;-60
2023/04/27 07:40:51;;;;;;;12.97;6.90;;;10.40;68.00;;;;;;5047715;28;20425;-60
2023/04/27 07:43:16;;;;;;;10.80;6.83;;;10.50;67.30;;;;;;5045082;28;20448;-61
2023/04/27 07:45:42;;;;;;;10.40;6.80;;;10.60;66.60;;;;;;5051165;28;20526;-60
2023/04/27 07:48:08;;;;;;;11.97;6.53;;;10.70;66.50;;;;;;5052476;28;20175;-60
2023/04/27 07:50:34;;;;;;;14.47;6.90;;;10.80;66.30;;;;;;5048757;28;20479;-60
2023/04/27 07:53:00;;;;;;;13.07;7.40;;;10.80;64.60;;;;;;5040189;28;20219;-60
2023/04/27 07:55:25;;;;;;;10.50;7.17;;;10.80;64.20;;;;;;5041062;28;20246;-60
2023/04/27 07:57:52;;;;;;;10.37;7.33;;;10.80;64.30;;;;;;5041342;28;20345;-60
2023/04/27 08:00:18;;;;;;;9.13;7.30;;;10.90;64.70;;;;;;5045045;28;20570;-60
2023/04/27 08:02:44;;;;;;;16.73;7.60;;;11.00;65.10;;;;;;5041371;28;20429;-61
2023/04/27 08:05:10;;;;;;;9.27;6.50;;;11.10;65.20;;;;;;5036699;28;20814;-60
2023/04/27 08:07:36;;;;;;;10.50;6.60;;;11.10;65.10;;;;;;5044137;28;20187;-60
2023/04/27 08:10:02;;;;;;;15.13;5.90;;;11.20;63.30;;;;;;5043868;28;20174;-60
2023/04/27 08:12:27;;;;;;;14.93;6.00;;;11.20;63.30;;;;;;5042845;28;21051;-60
2023/04/27 08:14:53;;;;;;;11.23;5.70;;;11.30;63.30;;;;;;5043620;28;20596;-61
2023/04/27 08:17:20;;;;;;;14.23;6.73;;;11.40;63.50;;;;;;5044702;28;20203;-64
2023/04/27 08:19:46;;;;;;;14.00;5.60;;;11.50;63.60;;;;;;5044191;28;20175;-60
2023/04/27 08:22:12;;;;;;;12.43;5.67;;;11.60;63.90;;;;;;5041562;28;20908;-60
2023/04/27 08:24:38;;;;;;;22.47;5.77;;;11.70;63.70;;;;;;5046785;28;20175;-60
2023/04/27 08:27:05;;;;;;;10.10;5.27;;;11.90;63.80;;;;;;5042272;28;20231;-61
2023/04/27 08:29:31;;;;;;;12.57;5.30;;;12.20;63.30;;;;;;5034970;28;20549;-60
2023/04/27 08:31:58;;;;;;;16.83;5.37;;;12.30;59.00;;;;;;5046046;28;20441;-60
2023/04/27 08:34:24;;;;;;;8.30;4.80;;;12.30;59.30;;;;;;5043727;28;20210;-60
2023/04/27 08:36:50;;;;;;;6.37;4.50;;;12.40;60.80;;;;;;5039010;28;20457;-60
2023/04/27 08:39:17;;;;;;;7.77;4.93;;;12.60;60.10;;;;;;5042276;28;20432;-62
2023/04/27 08:41:43;;;;;;;5.67;3.70;;;12.70;58.80;;;;;;5038428;28;20184;-60
2023/04/27 08:44:08;;;;;;;5.43;3.67;;;12.90;58.70;;;;;;5048335;28;20459;-60
2023/04/27 08:46:36;;;;;;;5.33;4.17;;;13.00;58.90;;;;;;5047330;28;20472;-61
2023/04/27 08:49:01;;;;;;;6.00;3.50;;;13.20;58.70;;;;;;5040124;28;20175;-60
2023/04/27 08:51:27;;;;;;;6.47;3.40;;;13.30;58.20;;;;;;5046110;28;20525;-60
2023/04/27 08:53:55;;;;;;;4.70;3.40;;;13.40;57.90;;;;;;5032874;28;20652;-60
2023/04/27 08:56:24;;;;;;;7.47;3.77;;;13.50;57.90;;;;;;5046674;28;20317;-61
2023/04/27 08:58:50;;;;;;;4.77;3.37;;;13.70;58.20;;;;;;5042651;28;20465;-60
2023/04/27 09:01:16;;;;;;;3.63;3.10;;;13.70;57.60;;;;;;5029518;28;20430;-60
2023/04/27 09:03:45;;;;;;;4.80;3.17;;;13.80;57.40;;;;;;5040005;28;20454;-60
2023/04/27 09:06:11;;;;;;;5.13;3.10;;;13.70;56.80;;;;;;5045283;28;20289;-60
2023/04/27 09:08:43;;;;;;;4.57;3.33;;;13.80;56.80;;;;;;5046346;28;20464;-61
2023/04/27 09:11:09;;;;;;;4.20;2.83;;;13.80;56.30;;;;;;5041968;28;20441;-60
2023/04/27 09:13:36;;;;;;;6.87;2.97;;;13.80;56.20;;;;;;5044837;28;20437;-60
2023/04/27 09:16:02;;;;;;;5.03;3.90;;;13.90;56.40;;;;;;5038921;28;20660;-59
2023/04/27 09:18:28;;;;;;;4.00;3.13;;;13.90;56.50;;;;;;5039746;28;20457;-60
2023/04/27 09:20:53;;;;;;;6.13;3.70;;;14.00;56.70;;;;;;5045256;28;20508;-61
2023/04/27 09:23:32;;;;;;;3.63;3.03;;;14.00;56.60;;;;;;5042576;28;20845;-60
2023/04/27 09:25:59;;;;;;;6.13;3.33;;;14.00;54.80;;;;;;5032650;28;20194;-60
2023/04/27 09:28:29;;;;;;;3.57;3.10;;;13.90;55.50;;;;;;5040010;28;20917;-59
2023/04/27 09:30:57;;;;;;;7.00;2.77;;;13.80;56.10;;;;;;5041596;28;20425;-60
2023/04/27 09:33:30;;;;;;;2.80;2.40;;;13.80;54.20;;;;;;5044338;28;21010;-60
2023/04/27 09:35:58;;;;;;;2.93;2.20;;;13.70;53.80;;;;;;5042960;28;20492;-61
2023/04/27 09:38:24;;;;;;;4.20;2.40;;;13.70;54.60;;;;;;5041440;28;20473;-60
2023/04/27 09:40:51;;;;;;;3.07;2.33;;;13.70;54.70;;;;;;5043219;28;20430;-60
2023/04/27 09:43:17;;;;;;;3.70;2.13;;;13.70;55.10;;;;;;5041260;28;20425;-61
2023/04/27 09:45:43;;;;;;;2.90;2.27;;;13.80;54.60;;;;;;5039435;28;20453;-60
2023/04/27 09:48:10;;;;;;;2.80;2.60;;;13.80;54.30;;;;;;5031468;28;20175;-60
2023/04/27 09:50:37;;;;;;;5.20;2.50;;;13.90;54.70;;;;;;5036216;28;20172;-60
2023/04/27 09:53:05;;;;;;;2.23;2.03;;;14.00;54.80;;;;;;5047488;28;20441;-60
2023/04/27 09:55:44;;;;;;;4.67;2.80;;;14.00;53.80;;;;;;5047880;28;20461;-61
2023/04/27 09:58:46;;;;;;;2.70;2.33;;;13.90;52.70;;;;;;5038270;28;20457;-60
2023/04/27 10:01:33;;;;;;;2.53;2.33;;;13.70;53.40;;;;;;5038245;28;20495;-61
2023/04/27 10:04:22;;;;;;;2.60;2.10;;;13.60;53.30;;;;;;5040167;28;20789;-60
2023/04/27 10:07:08;;;;;;;6.83;2.73;;;13.60;54.10;;;;;;5040832;28;20469;-60
2023/04/27 10:09:35;;;;;;;2.23;2.03;;;13.60;54.10;;;;;;5044600;28;20452;-60
2023/04/27 10:12:14;;;;;;;3.67;2.30;;;13.60;53.90;;;;;;5035189;28;20418;-60
2023/04/27 10:14:50;;;;;;;4.97;2.50;;;13.60;54.80;;;;;;5042262;28;20425;-61
2023/04/27 10:17:16;;;;;;;3.30;2.83;;;13.60;53.50;;;;;;5038339;28;20493;-60
2023/04/27 10:20:03;;;;;;;2.53;2.33;;;13.70;53.70;;;;;;5043490;28;20976;-61
2023/04/27 10:22:45;;;;;;;5.63;2.47;;;13.80;53.60;;;;;;5031463;28;20431;-60
2023/04/27 10:25:26;;;;;;;3.50;2.50;;;14.00;53.30;;;;;;5047052;28;20414;-60
2023/04/27 10:28:00;;;;;;;3.27;2.53;;;13.90;52.50;;;;;;5040542;28;20495;-61
2023/04/27 10:30:36;;;;;;;2.97;2.67;;;14.00;52.90;;;;;;5039811;28;20969;-61
2023/04/27 10:33:06;;;;;;;7.10;4.10;;;14.00;53.00;;;;;;5044839;28;20433;-60
2023/04/27 10:35:56;;;;;;;2.80;2.60;;;14.00;53.40;;;;;;5043300;28;21173;-60
2023/04/27 10:38:28;;;;;;;4.23;2.73;;;14.00;53.30;;;;;;5042518;28;20492;-60
2023/04/27 10:40:54;;;;;;;4.97;2.50;;;14.00;53.40;;;;;;5041607;28;20563;-61
2023/04/27 10:43:25;;;;;;;4.00;2.80;;;14.10;53.20;;;;;;5029798;28;20425;-60
2023/04/27 10:45:50;;;;;;;4.30;2.87;;;14.10;53.00;;;;;;5045915;28;20441;-60
2023/04/27 10:48:16;;;;;;;4.97;2.83;;;14.20;53.30;;;;;;5040755;28;20512;-60
2023/04/27 10:50:43;;;;;;;4.03;2.30;;;14.30;53.30;;;;;;5042957;28;20544;-60
2023/04/27 10:53:09;;;;;;;3.20;2.53;;;14.50;53.50;;;;;;5042050;28;20185;-60
2023/04/27 10:55:35;;;;;;;3.10;2.80;;;14.60;52.10;;;;;;5038277;28;20453;-60
2023/04/27 10:58:02;;;;;;;2.77;2.57;;;14.50;52.10;;;;;;5033006;28;20191;-60
2023/04/27 11:00:31;;;;;;;2.27;2.07;;;14.40;51.90;;;;;;5043287;28;20461;-60
2023/04/27 11:03:10;;;;;;;5.53;2.10;;;14.50;52.10;;;;;;5045683;28;20433;-60
2023/04/27 11:05:35;;;;;;;2.40;2.20;;;14.50;52.10;;;;;;5043741;28;20468;-60
2023/04/27 11:08:06;;;;;;;3.20;2.00;;;14.50;51.60;;;;;;5033563;28;20430;-60
2023/04/27 11:10:32;;;;;;;4.27;2.53;;;14.60;51.70;;;;;;5043104;28;20184;-60
2023/04/27 11:12:58;;;;;;;2.60;2.30;;;14.70;52.00;;;;;;5015684;28;20838;-60
2023/04/27 11:15:24;;;;;;;3.10;1.87;;;14.80;52.70;;;;;;5041746;28;20441;-61
2023/04/27 11:17:50;;;;;;;2.23;1.77;;;14.90;52.00;;;;;;5040994;28;20199;-60
2023/04/27 11:20:24;;;;;;;3.17;2.13;;;15.00;52.40;;;;;;5040387;28;20713;-60
2023/04/27 11:22:50;;;;;;;2.17;1.93;;;15.00;52.10;;;;;;5033303;28;21000;-60
2023/04/27 11:25:15;;;;;;;3.80;2.17;;;14.90;51.80;;;;;;5041193;28;20425;-60
2023/04/27 11:27:41;;;;;;;2.93;1.97;;;14.90;52.00;;;;;;5038185;28;20245;-61
2023/04/27 11:30:22;;;;;;;1.87;1.77;;;14.80;51.30;;;;;;5040878;28;20186;-60
2023/04/27 11:32:48;;;;;;;5.00;3.13;;;14.70;50.90;;;;;;5041399;28;20592;-59
2023/04/27 11:35:14;;;;;;;6.33;2.53;;;14.70;51.90;;;;;;5038079;28;20986;-61
2023/04/27 11:37:41;;;;;;;6.80;2.73;;;14.60;51.80;;;;;;5037922;28;20537;-60
2023/04/27 11:40:08;;;;;;;3.83;2.90;;;14.60;51.90;;;;;;5038005;28;20433;-62
2023/04/27 11:42:33;;;;;;;4.27;1.90;;;14.70;52.70;;;;;;5044899;28;20430;-61
2023/04/27 11:45:01;;;;;;;2.33;1.87;;;14.80;52.10;;;;;;5038491;28;20491;-61
2023/04/27 11:47:29;;;;;;;2.50;2.30;;;14.80;51.90;;;;;;5041643;28;20568;-60
2023/04/27 11:49:59;;;;;;;2.30;2.10;;;14.70;51.20;;;;;;5025518;28;20486;-61
2023/04/27 11:52:33;;;;;;;2.97;2.10;;;14.70;50.30;;;;;;5042022;28;20951;-60
2023/04/27 11:55:00;;;;;;;2.47;2.20;;;14.60;51.50;;;;;;5039022;28;20433;-60
2023/04/27 11:57:28;;;;;;;2.20;2.00;;;14.60;51.80;;;;;;5041340;28;20965;-61
2023/04/27 11:59:55;;;;;;;2.47;2.10;;;14.60;52.10;;;;;;5040359;28;20437;-61
2023/04/27 12:02:22;;;;;;;2.70;2.10;;;14.50;51.90;;;;;;5029114;28;20768;-60
2023/04/27 12:04:48;;;;;;;3.63;2.10;;;14.50;52.30;;;;;;5037549;28;20441;-60
2023/04/27 12:07:14;;;;;;;2.30;2.20;;;14.50;52.40;;;;;;5035686;28;20544;-61
2023/04/27 12:09:40;;;;;;;2.33;2.13;;;14.50;51.80;;;;;;5041258;28;20570;-60
2023/04/27 12:12:07;;;;;;;3.70;2.20;;;14.50;51.10;;;;;;5036931;28;20183;-59
2023/04/27 12:14:32;;;;;;;2.50;2.30;;;14.50;51.50;;;;;;5036515;28;20477;-62
2023/04/27 12:16:58;;;;;;;3.70;1.97;;;14.50;52.20;;;;;;5041879;28;20457;-60
2023/04/27 12:19:24;;;;;;;2.60;1.90;;;14.60;52.00;;;;;;5037088;28;20175;-60
2023/04/27 12:21:51;;;;;;;2.53;2.20;;;14.70;52.20;;;;;;5038264;28;20259;-61
2023/04/27 12:24:16;;;;;;;3.87;2.47;;;14.80;52.50;;;;;;5038157;28;20421;-60
2023/04/27 12:26:42;;;;;;;2.70;2.00;;;14.80;51.10;;;;;;5040787;28;20449;-61
2023/04/27 12:29:08;;;;;;;2.67;2.30;;;14.80;51.30;;;;;;5041801;28;20186;-60
2023/04/27 12:31:34;;;;;;;3.00;2.30;;;14.80;51.10;;;;;;5043387;28;20560;-61
2023/04/27 12:34:00;;;;;;;3.90;2.40;;;14.90;51.60;;;;;;5036395;28;20191;-61
2023/04/27 12:36:26;;;;;;;3.07;2.40;;;15.10;52.20;;;;;;5038499;28;20541;-60
2023/04/27 12:38:56;;;;;;;3.90;3.40;;;15.30;51.20;;;;;;5034467;28;21062;-61
2023/04/27 12:41:22;;;;;;;6.20;2.87;;;15.80;52.10;;;;;;5042503;28;20198;-61
2023/04/27 12:43:47;;;;;;;3.00;2.63;;;16.30;51.50;;;;;;5036833;28;20816;-61
2023/04/27 12:46:13;;;;;;;6.70;3.67;;;16.80;51.70;;;;;;5016498;28;20253;-60
2023/04/27 12:48:39;;;;;;;4.93;3.57;;;17.30;50.30;;;;;;5040006;28;20167;-61